sensor_id;sensor_type;location;lat;lon;timestamp;P1;durP1;ratioP1;P2;durP2;ratioP2
68256;SDS011;55069;51.568;4.656;2022-12-10T00:02:04;90.20;;;31.17;;
68256;SDS011;55069;51.568;4.656;2022-12-10T00:04:30;105.85;;;30.95;;
68256;SDS011;55069;51.568;4.656;2022-12-10T00:06:55;115.97;;;34.30;;
68256;SDS011;55069;51.568;4.656;2022-12-10T00:09:21;103.37;;;33.00;;
68256;SDS011;55069;51.568;4.656;2022-12-10T00:11:47;128.63;;;32.72;;
68256;SDS011;55069;51.568;4.656;2022-12-10T00:14:13;102.25;;;30.88;;
68256;SDS011;55069;51.568;4.656;2022-12-10T00:16:39;119.65;;;33.78;;
68256;SDS011;55069;51.568;4.656;2022-12-10T00:19:06;133.00;;;35.97;;
68256;SDS011;55069;51.568;4.656;2022-12-10T00:21:33;108.60;;;31.33;;
68256;SDS011;55069;51.568;4.656;2022-12-10T00:24:00;116.55;;;33.63;;
68256;SDS011;55069;51.568;4.656;2022-12-10T00:26:27;119.07;;;34.25;;
68256;SDS011;55069;51.568;4.656;2022-12-10T00:28:53;116.40;;;35.25;;
68256;SDS011;55069;51.568;4.656;2022-12-10T00:31:21;113.72;;;31.73;;
68256;SDS011;55069;51.568;4.656;2022-12-10T00:33:50;131.77;;;34.93;;
68256;SDS011;55069;51.568;4.656;2022-12-10T00:36:20;131.63;;;36.92;;
68256;SDS011;55069;51.568;4.656;2022-12-10T00:38:51;156.73;;;39.00;;
68256;SDS011;55069;51.568;4.656;2022-12-10T00:41:18;143.00;;;37.37;;
68256;SDS011;55069;51.568;4.656;2022-12-10T00:43:43;147.68;;;38.28;;
68256;SDS011;55069;51.568;4.656;2022-12-10T00:46:10;119.07;;;34.45;;
68256;SDS011;55069;51.568;4.656;2022-12-10T00:48:36;140.50;;;35.80;;
68256;SDS011;55069;51.568;4.656;2022-12-10T00:51:06;138.32;;;35.28;;
68256;SDS011;55069;51.568;4.656;2022-12-10T00:53:37;140.33;;;34.83;;
68256;SDS011;55069;51.568;4.656;2022-12-10T00:56:05;136.77;;;34.67;;
68256;SDS011;55069;51.568;4.656;2022-12-10T00:58:33;136.60;;;34.10;;
68256;SDS011;55069;51.568;4.656;2022-12-10T01:03:32;122.78;;;35.47;;
68256;SDS011;55069;51.568;4.656;2022-12-10T01:06:01;127.97;;;36.53;;
68256;SDS011;55069;51.568;4.656;2022-12-10T01:08:36;117.45;;;35.47;;
68256;SDS011;55069;51.568;4.656;2022-12-10T01:11:02;116.20;;;34.88;;
68256;SDS011;55069;51.568;4.656;2022-12-10T01:13:28;111.40;;;34.13;;
68256;SDS011;55069;51.568;4.656;2022-12-10T01:15:53;114.83;;;33.80;;
68256;SDS011;55069;51.568;4.656;2022-12-10T01:18:19;118.63;;;34.85;;
68256;SDS011;55069;51.568;4.656;2022-12-10T01:20:44;105.60;;;34.00;;
68256;SDS011;55069;51.568;4.656;2022-12-10T01:23:10;132.63;;;38.10;;
68256;SDS011;55069;51.568;4.656;2022-12-10T01:25:35;114.47;;;34.40;;
68256;SDS011;55069;51.568;4.656;2022-12-10T01:28:01;106.03;;;33.92;;
68256;SDS011;55069;51.568;4.656;2022-12-10T01:30:26;116.23;;;35.00;;
68256;SDS011;55069;51.568;4.656;2022-12-10T01:32:52;114.67;;;35.27;;
68256;SDS011;55069;51.568;4.656;2022-12-10T01:35:17;116.77;;;35.97;;
68256;SDS011;55069;51.568;4.656;2022-12-10T01:37:43;118.68;;;34.60;;
68256;SDS011;55069;51.568;4.656;2022-12-10T01:40:09;120.27;;;36.27;;
68256;SDS011;55069;51.568;4.656;2022-12-10T01:42:35;116.13;;;34.72;;
68256;SDS011;55069;51.568;4.656;2022-12-10T01:45:02;114.03;;;34.07;;
68256;SDS011;55069;51.568;4.656;2022-12-10T01:47:30;107.78;;;35.83;;
68256;SDS011;55069;51.568;4.656;2022-12-10T01:49:57;115.22;;;33.92;;
68256;SDS011;55069;51.568;4.656;2022-12-10T01:52:23;109.82;;;34.33;;
68256;SDS011;55069;51.568;4.656;2022-12-10T01:54:49;120.33;;;33.63;;
68256;SDS011;55069;51.568;4.656;2022-12-10T01:57:16;111.35;;;33.80;;
68256;SDS011;55069;51.568;4.656;2022-12-10T01:59:49;104.77;;;33.07;;
68256;SDS011;55069;51.568;4.656;2022-12-10T02:15:48;106.93;;;33.38;;
68256;SDS011;55069;51.568;4.656;2022-12-10T02:18:20;92.90;;;30.50;;
68256;SDS011;55069;51.568;4.656;2022-12-10T02:20:51;116.55;;;32.00;;
68256;SDS011;55069;51.568;4.656;2022-12-10T02:23:30;99.32;;;30.75;;
68256;SDS011;55069;51.568;4.656;2022-12-10T02:26:04;111.27;;;31.23;;
68256;SDS011;55069;51.568;4.656;2022-12-10T02:31:33;113.03;;;31.17;;
68256;SDS011;55069;51.568;4.656;2022-12-10T02:34:01;111.20;;;31.63;;
68256;SDS011;55069;51.568;4.656;2022-12-10T02:36:31;120.03;;;34.65;;
68256;SDS011;55069;51.568;4.656;2022-12-10T02:39:00;111.72;;;32.10;;
68256;SDS011;55069;51.568;4.656;2022-12-10T02:41:29;115.20;;;34.53;;
68256;SDS011;55069;51.568;4.656;2022-12-10T02:44:09;102.03;;;31.77;;
68256;SDS011;55069;51.568;4.656;2022-12-10T02:46:37;121.25;;;31.52;;
68256;SDS011;55069;51.568;4.656;2022-12-10T02:49:06;105.03;;;31.40;;
68256;SDS011;55069;51.568;4.656;2022-12-10T02:51:34;131.43;;;33.33;;
68256;SDS011;55069;51.568;4.656;2022-12-10T02:54:00;114.03;;;33.33;;
68256;SDS011;55069;51.568;4.656;2022-12-10T02:56:32;107.20;;;30.97;;
68256;SDS011;55069;51.568;4.656;2022-12-10T03:04:25;116.65;;;34.33;;
68256;SDS011;55069;51.568;4.656;2022-12-10T03:07:00;119.63;;;35.10;;
68256;SDS011;55069;51.568;4.656;2022-12-10T03:09:45;128.57;;;35.45;;
68256;SDS011;55069;51.568;4.656;2022-12-10T03:12:17;119.10;;;35.17;;
68256;SDS011;55069;51.568;4.656;2022-12-10T03:14:56;115.57;;;34.15;;
68256;SDS011;55069;51.568;4.656;2022-12-10T03:17:24;96.55;;;31.80;;
68256;SDS011;55069;51.568;4.656;2022-12-10T03:19:50;110.70;;;32.50;;
68256;SDS011;55069;51.568;4.656;2022-12-10T03:22:18;107.03;;;32.13;;
68256;SDS011;55069;51.568;4.656;2022-12-10T03:24:45;114.13;;;30.90;;
68256;SDS011;55069;51.568;4.656;2022-12-10T03:27:11;92.25;;;29.90;;
68256;SDS011;55069;51.568;4.656;2022-12-10T03:29:40;91.75;;;30.58;;
68256;SDS011;55069;51.568;4.656;2022-12-10T03:32:11;93.63;;;31.87;;
68256;SDS011;55069;51.568;4.656;2022-12-10T03:34:37;107.65;;;31.30;;
68256;SDS011;55069;51.568;4.656;2022-12-10T03:37:03;107.13;;;31.77;;
68256;SDS011;55069;51.568;4.656;2022-12-10T03:39:30;105.00;;;30.92;;
68256;SDS011;55069;51.568;4.656;2022-12-10T03:41:56;117.28;;;30.58;;
68256;SDS011;55069;51.568;4.656;2022-12-10T03:44:31;105.37;;;30.83;;
68256;SDS011;55069;51.568;4.656;2022-12-10T03:46:59;96.95;;;30.92;;
68256;SDS011;55069;51.568;4.656;2022-12-10T03:49:26;102.38;;;31.95;;
68256;SDS011;55069;51.568;4.656;2022-12-10T03:51:52;119.90;;;32.03;;
68256;SDS011;55069;51.568;4.656;2022-12-10T03:54:18;125.43;;;31.90;;
68256;SDS011;55069;51.568;4.656;2022-12-10T03:56:44;118.38;;;30.15;;
68256;SDS011;55069;51.568;4.656;2022-12-10T03:59:09;111.70;;;31.17;;
68256;SDS011;55069;51.568;4.656;2022-12-10T04:01:35;159.05;;;29.70;;
68256;SDS011;55069;51.568;4.656;2022-12-10T04:04:00;140.77;;;31.27;;
68256;SDS011;55069;51.568;4.656;2022-12-10T04:06:27;116.68;;;29.23;;
68256;SDS011;55069;51.568;4.656;2022-12-10T04:08:53;116.70;;;29.50;;
68256;SDS011;55069;51.568;4.656;2022-12-10T04:11:18;124.53;;;29.53;;
68256;SDS011;55069;51.568;4.656;2022-12-10T04:13:44;113.87;;;30.40;;
68256;SDS011;55069;51.568;4.656;2022-12-10T04:16:29;102.28;;;29.38;;
68256;SDS011;55069;51.568;4.656;2022-12-10T04:18:57;126.63;;;31.70;;
68256;SDS011;55069;51.568;4.656;2022-12-10T04:21:25;116.85;;;30.92;;
68256;SDS011;55069;51.568;4.656;2022-12-10T04:24:11;83.43;;;26.30;;
68256;SDS011;55069;51.568;4.656;2022-12-10T04:26:57;115.10;;;29.73;;
68256;SDS011;55069;51.568;4.656;2022-12-10T04:29:27;116.03;;;29.75;;
68256;SDS011;55069;51.568;4.656;2022-12-10T04:31:54;118.90;;;31.40;;
68256;SDS011;55069;51.568;4.656;2022-12-10T04:34:21;103.80;;;30.83;;
68256;SDS011;55069;51.568;4.656;2022-12-10T04:36:47;102.15;;;30.70;;
68256;SDS011;55069;51.568;4.656;2022-12-10T04:39:13;113.97;;;31.30;;
68256;SDS011;55069;51.568;4.656;2022-12-10T04:41:39;106.40;;;32.45;;
68256;SDS011;55069;51.568;4.656;2022-12-10T04:44:06;111.00;;;29.00;;
68256;SDS011;55069;51.568;4.656;2022-12-10T04:46:32;90.87;;;27.60;;
68256;SDS011;55069;51.568;4.656;2022-12-10T04:48:57;101.75;;;28.42;;
68256;SDS011;55069;51.568;4.656;2022-12-10T04:51:23;124.03;;;30.07;;
68256;SDS011;55069;51.568;4.656;2022-12-10T04:53:48;105.32;;;30.17;;
68256;SDS011;55069;51.568;4.656;2022-12-10T04:56:14;97.88;;;28.73;;
68256;SDS011;55069;51.568;4.656;2022-12-10T04:58:39;108.00;;;27.67;;
68256;SDS011;55069;51.568;4.656;2022-12-10T05:01:06;102.43;;;27.33;;
68256;SDS011;55069;51.568;4.656;2022-12-10T05:03:34;98.13;;;29.10;;
68256;SDS011;55069;51.568;4.656;2022-12-10T05:06:07;89.07;;;27.85;;
68256;SDS011;55069;51.568;4.656;2022-12-10T05:08:35;96.63;;;26.15;;
68256;SDS011;55069;51.568;4.656;2022-12-10T05:11:06;80.18;;;27.02;;
68256;SDS011;55069;51.568;4.656;2022-12-10T05:13:34;92.28;;;28.23;;
68256;SDS011;55069;51.568;4.656;2022-12-10T05:16:03;88.70;;;26.42;;
68256;SDS011;55069;51.568;4.656;2022-12-10T05:18:30;91.83;;;28.23;;
68256;SDS011;55069;51.568;4.656;2022-12-10T05:20:59;106.72;;;29.52;;
68256;SDS011;55069;51.568;4.656;2022-12-10T05:23:29;103.80;;;26.40;;
68256;SDS011;55069;51.568;4.656;2022-12-10T05:28:28;94.40;;;27.13;;
68256;SDS011;55069;51.568;4.656;2022-12-10T05:30:54;95.90;;;27.48;;
68256;SDS011;55069;51.568;4.656;2022-12-10T05:33:20;92.43;;;28.73;;
68256;SDS011;55069;51.568;4.656;2022-12-10T05:35:56;109.27;;;27.50;;
68256;SDS011;55069;51.568;4.656;2022-12-10T05:38:26;86.53;;;26.25;;
68256;SDS011;55069;51.568;4.656;2022-12-10T05:40:53;112.75;;;27.48;;
68256;SDS011;55069;51.568;4.656;2022-12-10T05:43:19;103.50;;;25.57;;
68256;SDS011;55069;51.568;4.656;2022-12-10T05:45:45;95.35;;;26.08;;
68256;SDS011;55069;51.568;4.656;2022-12-10T05:48:12;93.25;;;26.75;;
68256;SDS011;55069;51.568;4.656;2022-12-10T05:50:40;126.30;;;27.93;;
68256;SDS011;55069;51.568;4.656;2022-12-10T05:53:06;101.07;;;27.23;;
68256;SDS011;55069;51.568;4.656;2022-12-10T05:55:31;94.10;;;26.73;;
68256;SDS011;55069;51.568;4.656;2022-12-10T05:57:58;103.60;;;25.87;;
68256;SDS011;55069;51.568;4.656;2022-12-10T06:00:25;162.55;;;26.52;;
68256;SDS011;55069;51.568;4.656;2022-12-10T06:02:51;106.65;;;23.70;;
68256;SDS011;55069;51.568;4.656;2022-12-10T06:05:16;100.30;;;23.87;;
68256;SDS011;55069;51.568;4.656;2022-12-10T06:07:42;78.13;;;23.73;;
68256;SDS011;55069;51.568;4.656;2022-12-10T06:10:08;105.32;;;23.67;;
68256;SDS011;55069;51.568;4.656;2022-12-10T06:12:34;110.77;;;24.70;;
68256;SDS011;55069;51.568;4.656;2022-12-10T06:14:59;89.75;;;25.92;;
68256;SDS011;55069;51.568;4.656;2022-12-10T06:17:25;94.20;;;23.57;;
68256;SDS011;55069;51.568;4.656;2022-12-10T06:19:50;98.83;;;25.77;;
68256;SDS011;55069;51.568;4.656;2022-12-10T06:22:16;85.65;;;24.05;;
68256;SDS011;55069;51.568;4.656;2022-12-10T06:24:41;94.40;;;22.47;;
68256;SDS011;55069;51.568;4.656;2022-12-10T06:27:07;102.73;;;23.43;;
68256;SDS011;55069;51.568;4.656;2022-12-10T06:29:32;94.17;;;23.13;;
68256;SDS011;55069;51.568;4.656;2022-12-10T06:31:58;84.88;;;23.17;;
68256;SDS011;55069;51.568;4.656;2022-12-10T06:34:23;98.60;;;23.63;;
68256;SDS011;55069;51.568;4.656;2022-12-10T06:36:49;101.47;;;22.57;;
68256;SDS011;55069;51.568;4.656;2022-12-10T06:39:15;87.53;;;22.17;;
68256;SDS011;55069;51.568;4.656;2022-12-10T06:41:40;92.63;;;24.38;;
68256;SDS011;55069;51.568;4.656;2022-12-10T06:44:09;80.47;;;22.70;;
68256;SDS011;55069;51.568;4.656;2022-12-10T06:46:36;86.37;;;24.00;;
68256;SDS011;55069;51.568;4.656;2022-12-10T06:49:02;87.95;;;23.30;;
68256;SDS011;55069;51.568;4.656;2022-12-10T06:51:29;73.72;;;21.75;;
68256;SDS011;55069;51.568;4.656;2022-12-10T06:53:54;90.90;;;22.10;;
68256;SDS011;55069;51.568;4.656;2022-12-10T06:56:20;95.35;;;22.13;;
68256;SDS011;55069;51.568;4.656;2022-12-10T06:58:47;92.70;;;23.13;;
68256;SDS011;55069;51.568;4.656;2022-12-10T07:03:50;86.28;;;24.13;;
68256;SDS011;55069;51.568;4.656;2022-12-10T07:06:18;103.95;;;24.98;;
68256;SDS011;55069;51.568;4.656;2022-12-10T07:08:44;90.07;;;24.00;;
68256;SDS011;55069;51.568;4.656;2022-12-10T07:11:11;83.43;;;23.60;;
68256;SDS011;55069;51.568;4.656;2022-12-10T07:13:38;108.82;;;23.65;;
68256;SDS011;55069;51.568;4.656;2022-12-10T07:16:17;104.83;;;22.67;;
68256;SDS011;55069;51.568;4.656;2022-12-10T07:18:45;127.03;;;22.17;;
68256;SDS011;55069;51.568;4.656;2022-12-10T07:23:43;89.88;;;23.85;;
68256;SDS011;55069;51.568;4.656;2022-12-10T07:26:08;80.60;;;24.13;;
68256;SDS011;55069;51.568;4.656;2022-12-10T07:28:34;90.03;;;23.83;;
68256;SDS011;55069;51.568;4.656;2022-12-10T07:31:00;99.85;;;24.33;;
68256;SDS011;55069;51.568;4.656;2022-12-10T07:33:27;100.38;;;23.55;;
68256;SDS011;55069;51.568;4.656;2022-12-10T07:35:52;106.55;;;23.73;;
68256;SDS011;55069;51.568;4.656;2022-12-10T07:38:18;94.97;;;23.97;;
68256;SDS011;55069;51.568;4.656;2022-12-10T07:40:43;108.97;;;23.87;;
68256;SDS011;55069;51.568;4.656;2022-12-10T07:43:11;76.93;;;21.02;;
68256;SDS011;55069;51.568;4.656;2022-12-10T07:45:36;102.33;;;22.60;;
68256;SDS011;55069;51.568;4.656;2022-12-10T07:48:02;98.93;;;21.65;;
68256;SDS011;55069;51.568;4.656;2022-12-10T07:50:28;99.75;;;23.65;;
68256;SDS011;55069;51.568;4.656;2022-12-10T07:52:53;82.87;;;23.87;;
68256;SDS011;55069;51.568;4.656;2022-12-10T07:55:19;87.95;;;22.95;;
68256;SDS011;55069;51.568;4.656;2022-12-10T07:57:44;112.43;;;23.87;;
68256;SDS011;55069;51.568;4.656;2022-12-10T08:00:10;95.27;;;23.07;;
68256;SDS011;55069;51.568;4.656;2022-12-10T08:02:39;91.55;;;20.88;;
68256;SDS011;55069;51.568;4.656;2022-12-10T08:05:05;85.00;;;21.57;;
68256;SDS011;55069;51.568;4.656;2022-12-10T08:07:30;106.22;;;22.98;;
68256;SDS011;55069;51.568;4.656;2022-12-10T08:09:57;77.10;;;22.30;;
68256;SDS011;55069;51.568;4.656;2022-12-10T08:12:22;88.93;;;21.85;;
68256;SDS011;55069;51.568;4.656;2022-12-10T08:14:48;95.03;;;22.50;;
68256;SDS011;55069;51.568;4.656;2022-12-10T08:17:13;92.23;;;22.00;;
68256;SDS011;55069;51.568;4.656;2022-12-10T08:19:39;100.23;;;21.63;;
68256;SDS011;55069;51.568;4.656;2022-12-10T08:22:06;92.95;;;23.70;;
68256;SDS011;55069;51.568;4.656;2022-12-10T08:24:31;109.83;;;23.63;;
68256;SDS011;55069;51.568;4.656;2022-12-10T08:26:57;99.38;;;20.90;;
68256;SDS011;55069;51.568;4.656;2022-12-10T08:29:22;96.80;;;22.10;;
68256;SDS011;55069;51.568;4.656;2022-12-10T08:31:48;97.73;;;22.23;;
68256;SDS011;55069;51.568;4.656;2022-12-10T08:34:14;99.63;;;24.33;;
68256;SDS011;55069;51.568;4.656;2022-12-10T08:36:41;103.75;;;23.17;;
68256;SDS011;55069;51.568;4.656;2022-12-10T08:39:08;99.07;;;26.17;;
68256;SDS011;55069;51.568;4.656;2022-12-10T08:41:35;90.13;;;22.42;;
68256;SDS011;55069;51.568;4.656;2022-12-10T08:44:01;114.80;;;24.95;;
68256;SDS011;55069;51.568;4.656;2022-12-10T08:46:27;92.83;;;24.10;;
68256;SDS011;55069;51.568;4.656;2022-12-10T08:48:53;103.55;;;24.33;;
68256;SDS011;55069;51.568;4.656;2022-12-10T08:51:19;95.00;;;22.35;;
68256;SDS011;55069;51.568;4.656;2022-12-10T08:53:46;90.87;;;22.43;;
68256;SDS011;55069;51.568;4.656;2022-12-10T08:56:12;77.22;;;20.65;;
68256;SDS011;55069;51.568;4.656;2022-12-10T08:58:37;79.43;;;20.17;;
68256;SDS011;55069;51.568;4.656;2022-12-10T09:01:07;87.43;;;20.73;;
68256;SDS011;55069;51.568;4.656;2022-12-10T09:03:34;88.32;;;22.60;;
68256;SDS011;55069;51.568;4.656;2022-12-10T09:06:11;95.05;;;21.27;;
68256;SDS011;55069;51.568;4.656;2022-12-10T09:08:39;89.15;;;21.95;;
68256;SDS011;55069;51.568;4.656;2022-12-10T09:11:06;88.97;;;22.52;;
68256;SDS011;55069;51.568;4.656;2022-12-10T09:13:39;79.95;;;20.50;;
68256;SDS011;55069;51.568;4.656;2022-12-10T09:16:05;89.55;;;22.25;;
68256;SDS011;55069;51.568;4.656;2022-12-10T09:18:31;95.60;;;21.90;;
68256;SDS011;55069;51.568;4.656;2022-12-10T09:20:57;99.35;;;22.40;;
68256;SDS011;55069;51.568;4.656;2022-12-10T09:23:23;95.97;;;21.83;;
68256;SDS011;55069;51.568;4.656;2022-12-10T09:25:48;88.38;;;20.85;;
68256;SDS011;55069;51.568;4.656;2022-12-10T09:28:14;80.47;;;22.03;;
68256;SDS011;55069;51.568;4.656;2022-12-10T09:30:40;92.82;;;23.02;;
68256;SDS011;55069;51.568;4.656;2022-12-10T09:33:05;95.40;;;23.00;;
68256;SDS011;55069;51.568;4.656;2022-12-10T09:35:31;95.53;;;23.90;;
68256;SDS011;55069;51.568;4.656;2022-12-10T09:37:56;94.27;;;23.47;;
68256;SDS011;55069;51.568;4.656;2022-12-10T09:40:25;84.97;;;21.63;;
68256;SDS011;55069;51.568;4.656;2022-12-10T09:46:01;90.90;;;23.67;;
68256;SDS011;55069;51.568;4.656;2022-12-10T09:48:50;73.47;;;20.20;;
68256;SDS011;55069;51.568;4.656;2022-12-10T09:51:38;73.35;;;20.08;;
68256;SDS011;55069;51.568;4.656;2022-12-10T09:54:09;80.15;;;19.65;;
68256;SDS011;55069;51.568;4.656;2022-12-10T09:56:43;75.50;;;20.83;;
68256;SDS011;55069;51.568;4.656;2022-12-10T10:04:41;90.65;;;22.90;;
68256;SDS011;55069;51.568;4.656;2022-12-10T10:07:06;74.93;;;20.03;;
68256;SDS011;55069;51.568;4.656;2022-12-10T10:09:36;80.03;;;20.17;;
68256;SDS011;55069;51.568;4.656;2022-12-10T10:12:09;79.35;;;21.52;;
68256;SDS011;55069;51.568;4.656;2022-12-10T10:14:38;87.03;;;22.38;;
68256;SDS011;55069;51.568;4.656;2022-12-10T10:17:07;84.78;;;22.17;;
68256;SDS011;55069;51.568;4.656;2022-12-10T10:19:36;76.10;;;20.95;;
68256;SDS011;55069;51.568;4.656;2022-12-10T10:22:04;86.90;;;23.27;;
68256;SDS011;55069;51.568;4.656;2022-12-10T10:24:41;85.63;;;22.73;;
68256;SDS011;55069;51.568;4.656;2022-12-10T10:29:44;79.10;;;22.20;;
68256;SDS011;55069;51.568;4.656;2022-12-10T10:32:19;77.57;;;22.75;;
68256;SDS011;55069;51.568;4.656;2022-12-10T10:34:55;80.32;;;22.75;;
68256;SDS011;55069;51.568;4.656;2022-12-10T10:37:25;93.23;;;23.60;;
68256;SDS011;55069;51.568;4.656;2022-12-10T10:39:56;89.13;;;22.42;;
68256;SDS011;55069;51.568;4.656;2022-12-10T10:42:27;94.30;;;24.13;;
68256;SDS011;55069;51.568;4.656;2022-12-10T10:44:57;77.20;;;22.75;;
68256;SDS011;55069;51.568;4.656;2022-12-10T10:47:31;76.22;;;21.27;;
68256;SDS011;55069;51.568;4.656;2022-12-10T10:49:58;99.03;;;23.38;;
68256;SDS011;55069;51.568;4.656;2022-12-10T10:52:27;99.55;;;26.98;;
68256;SDS011;55069;51.568;4.656;2022-12-10T10:55:00;95.30;;;27.50;;
68256;SDS011;55069;51.568;4.656;2022-12-10T10:57:35;81.47;;;23.55;;
68256;SDS011;55069;51.568;4.656;2022-12-10T11:00:21;82.20;;;22.97;;
68256;SDS011;55069;51.568;4.656;2022-12-10T11:02:48;87.80;;;24.25;;
68256;SDS011;55069;51.568;4.656;2022-12-10T11:05:29;83.47;;;22.70;;
68256;SDS011;55069;51.568;4.656;2022-12-10T11:10:29;104.70;;;24.70;;
68256;SDS011;55069;51.568;4.656;2022-12-10T11:17:49;91.00;;;24.85;;
68256;SDS011;55069;51.568;4.656;2022-12-10T11:20:33;89.87;;;23.23;;
68256;SDS011;55069;51.568;4.656;2022-12-10T11:23:00;81.45;;;24.10;;
68256;SDS011;55069;51.568;4.656;2022-12-10T11:34:19;81.90;;;20.38;;
68256;SDS011;55069;51.568;4.656;2022-12-10T11:39:38;80.18;;;21.40;;
68256;SDS011;55069;51.568;4.656;2022-12-10T11:45:26;103.18;;;23.85;;
68256;SDS011;55069;51.568;4.656;2022-12-10T11:50:54;83.68;;;23.88;;
68256;SDS011;55069;51.568;4.656;2022-12-10T11:58:31;88.82;;;22.23;;
68256;SDS011;55069;51.568;4.656;2022-12-10T12:17:09;84.50;;;23.75;;
68256;SDS011;55069;51.568;4.656;2022-12-10T12:22:51;81.93;;;22.27;;
68256;SDS011;55069;51.568;4.656;2022-12-10T12:25:26;78.03;;;23.40;;
68256;SDS011;55069;51.568;4.656;2022-12-10T12:28:00;74.55;;;23.08;;
68256;SDS011;55069;51.568;4.656;2022-12-10T12:30:34;89.28;;;24.17;;
68256;SDS011;55069;51.568;4.656;2022-12-10T12:33:04;102.13;;;24.75;;
68256;SDS011;55069;51.568;4.656;2022-12-10T12:35:40;98.15;;;24.98;;
68256;SDS011;55069;51.568;4.656;2022-12-10T12:43:52;92.67;;;23.97;;
68256;SDS011;55069;51.568;4.656;2022-12-10T12:46:47;82.90;;;21.52;;
68256;SDS011;55069;51.568;4.656;2022-12-10T12:51:52;83.10;;;22.40;;
68256;SDS011;55069;51.568;4.656;2022-12-10T12:54:23;83.63;;;23.93;;
68256;SDS011;55069;51.568;4.656;2022-12-10T13:02:02;78.82;;;24.38;;
68256;SDS011;55069;51.568;4.656;2022-12-10T13:04:46;99.30;;;26.35;;
68256;SDS011;55069;51.568;4.656;2022-12-10T13:19:42;89.67;;;25.20;;
68256;SDS011;55069;51.568;4.656;2022-12-10T13:27:29;76.63;;;21.43;;
68256;SDS011;55069;51.568;4.656;2022-12-10T13:29:57;82.70;;;23.60;;
68256;SDS011;55069;51.568;4.656;2022-12-10T13:37:32;76.57;;;24.40;;
68256;SDS011;55069;51.568;4.656;2022-12-10T13:42:34;92.80;;;24.60;;
68256;SDS011;55069;51.568;4.656;2022-12-10T13:55:53;87.65;;;24.50;;
68256;SDS011;55069;51.568;4.656;2022-12-10T14:01:16;98.90;;;24.10;;
68256;SDS011;55069;51.568;4.656;2022-12-10T14:06:25;99.90;;;25.60;;
68256;SDS011;55069;51.568;4.656;2022-12-10T14:08:56;93.65;;;25.88;;
68256;SDS011;55069;51.568;4.656;2022-12-10T14:11:28;108.73;;;26.83;;
68256;SDS011;55069;51.568;4.656;2022-12-10T14:13:58;103.45;;;25.80;;
68256;SDS011;55069;51.568;4.656;2022-12-10T14:16:29;93.03;;;25.00;;
68256;SDS011;55069;51.568;4.656;2022-12-10T14:19:00;96.40;;;25.23;;
68256;SDS011;55069;51.568;4.656;2022-12-10T14:21:35;100.05;;;24.70;;
68256;SDS011;55069;51.568;4.656;2022-12-10T14:24:04;107.07;;;27.05;;
68256;SDS011;55069;51.568;4.656;2022-12-10T14:26:31;106.25;;;25.23;;
68256;SDS011;55069;51.568;4.656;2022-12-10T14:29:12;108.23;;;26.20;;
68256;SDS011;55069;51.568;4.656;2022-12-10T14:31:44;96.25;;;24.27;;
68256;SDS011;55069;51.568;4.656;2022-12-10T14:34:14;94.55;;;25.48;;
68256;SDS011;55069;51.568;4.656;2022-12-10T14:36:47;103.75;;;25.83;;
68256;SDS011;55069;51.568;4.656;2022-12-10T14:39:18;95.83;;;23.53;;
68256;SDS011;55069;51.568;4.656;2022-12-10T14:41:47;109.88;;;25.92;;
68256;SDS011;55069;51.568;4.656;2022-12-10T14:44:16;95.10;;;25.55;;
68256;SDS011;55069;51.568;4.656;2022-12-10T14:46:43;105.75;;;26.52;;
68256;SDS011;55069;51.568;4.656;2022-12-10T14:49:13;105.43;;;25.75;;
68256;SDS011;55069;51.568;4.656;2022-12-10T14:51:42;87.70;;;24.10;;
68256;SDS011;55069;51.568;4.656;2022-12-10T14:56:58;91.68;;;26.15;;
68256;SDS011;55069;51.568;4.656;2022-12-10T14:59:28;95.95;;;25.50;;
68256;SDS011;55069;51.568;4.656;2022-12-10T15:02:00;90.63;;;24.67;;
68256;SDS011;55069;51.568;4.656;2022-12-10T15:04:41;90.95;;;25.30;;
68256;SDS011;55069;51.568;4.656;2022-12-10T15:07:20;100.63;;;25.65;;
68256;SDS011;55069;51.568;4.656;2022-12-10T15:09:48;84.35;;;22.58;;
68256;SDS011;55069;51.568;4.656;2022-12-10T15:12:29;90.82;;;25.52;;
68256;SDS011;55069;51.568;4.656;2022-12-10T15:15:20;93.55;;;24.83;;
68256;SDS011;55069;51.568;4.656;2022-12-10T15:18:11;102.55;;;27.15;;
68256;SDS011;55069;51.568;4.656;2022-12-10T15:30:57;115.22;;;29.45;;
68256;SDS011;55069;51.568;4.656;2022-12-10T15:34:17;114.72;;;29.83;;
68256;SDS011;55069;51.568;4.656;2022-12-10T15:41:43;110.90;;;26.35;;
68256;SDS011;55069;51.568;4.656;2022-12-10T15:44:18;102.28;;;26.23;;
68256;SDS011;55069;51.568;4.656;2022-12-10T15:46:58;108.30;;;24.80;;
68256;SDS011;55069;51.568;4.656;2022-12-10T15:49:42;115.37;;;27.10;;
68256;SDS011;55069;51.568;4.656;2022-12-10T15:52:15;120.10;;;28.38;;
68256;SDS011;55069;51.568;4.656;2022-12-10T15:54:44;113.88;;;28.08;;
68256;SDS011;55069;51.568;4.656;2022-12-10T15:57:18;120.20;;;27.80;;
68256;SDS011;55069;51.568;4.656;2022-12-10T15:59:46;118.75;;;30.55;;
68256;SDS011;55069;51.568;4.656;2022-12-10T16:05:13;114.82;;;28.55;;
68256;SDS011;55069;51.568;4.656;2022-12-10T16:07:44;117.97;;;27.93;;
68256;SDS011;55069;51.568;4.656;2022-12-10T16:10:12;110.07;;;26.80;;
68256;SDS011;55069;51.568;4.656;2022-12-10T16:12:39;118.80;;;27.75;;
68256;SDS011;55069;51.568;4.656;2022-12-10T16:15:06;102.53;;;25.20;;
68256;SDS011;55069;51.568;4.656;2022-12-10T16:17:35;108.80;;;27.60;;
68256;SDS011;55069;51.568;4.656;2022-12-10T16:22:35;95.90;;;26.27;;
68256;SDS011;55069;51.568;4.656;2022-12-10T16:25:01;108.75;;;27.35;;
68256;SDS011;55069;51.568;4.656;2022-12-10T16:27:26;99.97;;;26.97;;
68256;SDS011;55069;51.568;4.656;2022-12-10T16:29:52;112.87;;;26.53;;
68256;SDS011;55069;51.568;4.656;2022-12-10T16:32:17;108.35;;;26.92;;
68256;SDS011;55069;51.568;4.656;2022-12-10T16:34:43;109.40;;;28.80;;
68256;SDS011;55069;51.568;4.656;2022-12-10T16:37:09;94.97;;;25.93;;
68256;SDS011;55069;51.568;4.656;2022-12-10T16:39:35;112.38;;;26.85;;
68256;SDS011;55069;51.568;4.656;2022-12-10T16:42:01;96.55;;;25.40;;
68256;SDS011;55069;51.568;4.656;2022-12-10T16:44:26;109.30;;;28.67;;
68256;SDS011;55069;51.568;4.656;2022-12-10T16:46:52;110.07;;;27.63;;
68256;SDS011;55069;51.568;4.656;2022-12-10T16:49:17;105.33;;;27.40;;
68256;SDS011;55069;51.568;4.656;2022-12-10T16:51:43;117.43;;;27.95;;
68256;SDS011;55069;51.568;4.656;2022-12-10T16:54:09;104.63;;;27.10;;
68256;SDS011;55069;51.568;4.656;2022-12-10T16:56:36;116.00;;;28.23;;
68256;SDS011;55069;51.568;4.656;2022-12-10T16:59:02;128.38;;;29.15;;
68256;SDS011;55069;51.568;4.656;2022-12-10T17:01:28;122.25;;;29.40;;
68256;SDS011;55069;51.568;4.656;2022-12-10T17:03:56;124.82;;;27.75;;
68256;SDS011;55069;51.568;4.656;2022-12-10T17:06:23;118.63;;;27.88;;
68256;SDS011;55069;51.568;4.656;2022-12-10T17:08:49;125.38;;;28.30;;
68256;SDS011;55069;51.568;4.656;2022-12-10T17:14:27;113.53;;;28.75;;
68256;SDS011;55069;51.568;4.656;2022-12-10T17:16:56;113.57;;;28.40;;
68256;SDS011;55069;51.568;4.656;2022-12-10T17:19:23;107.32;;;27.15;;
68256;SDS011;55069;51.568;4.656;2022-12-10T17:21:51;102.90;;;28.50;;